Time;durP1;ratioP1;P1;durP2;ratioP2;P2;SDS_P1;SDS_P2;PMS_P1;PMS_P2;Temp;Humidity;BMP_temperature;BMP_pressure;BME280_temperature;BME280_humidity;BME280_pressure;Samples;Min_cycle;Max_cycle;Signal;HPM_P1;HPM_P2
2022/03/27 00:00:32;;;;;;;335.42;307.48;;;;;;;18.58;26.69;94708.16;5137165;27;20035;-68
2022/03/27 00:03:11;;;;;;;332.23;304.13;;;;;;;18.58;26.55;94711.63;5146420;27;20117;-68
2022/03/27 00:05:37;;;;;;;333.08;305.60;;;;;;;18.57;26.71;94718.25;5155577;27;20065;-70
2022/03/27 00:08:03;;;;;;;353.88;324.27;;;;;;;18.58;26.74;94713.59;5155410;27;20034;-69
2022/03/27 00:10:28;;;;;;;333.20;305.95;;;;;;;18.57;26.66;94715.53;5133260;27;20038;-69
2022/03/27 00:12:54;;;;;;;340.02;311.92;;;;;;;18.57;26.88;94707.41;5148337;27;20371;-69
2022/03/27 00:15:19;;;;;;;335.60;307.80;;;;;;;18.57;26.74;94712.06;5148973;27;20039;-68
2022/03/27 00:17:45;;;;;;;325.08;297.55;;;;;;;18.57;26.74;94715.53;5160020;27;20085;-69
2022/03/27 00:20:12;;;;;;;323.20;296.23;;;;;;;18.56;26.86;94705.91;5156177;27;20374;-70
2022/03/27 00:22:39;;;;;;;338.98;310.90;;;;;;;18.56;26.65;94703.19;5150481;27;20120;-69
2022/03/27 00:25:06;;;;;;;331.08;303.45;;;;;;;18.56;26.68;94715.97;5153318;27;20038;-69
2022/03/27 00:27:33;;;;;;;328.27;301.30;;;;;;;18.56;26.67;94707.84;5156034;27;20043;-69
2022/03/27 00:29:58;;;;;;;330.42;303.05;;;;;;;18.55;26.64;94706.34;5132062;27;20090;-69
2022/03/27 00:32:27;;;;;;;341.33;312.95;;;;;;;18.55;26.60;94707.09;5156911;27;20035;-69
2022/03/27 00:34:56;;;;;;;331.38;303.77;;;;;;;18.55;26.63;94706.34;5155011;27;20031;-69
2022/03/27 00:37:22;;;;;;;334.58;306.17;;;;;;;18.57;26.67;94706.66;5159847;27;20126;-68
2022/03/27 00:39:47;;;;;;;334.15;306.65;;;;;;;18.55;26.69;94698.97;5156960;27;20035;-69
2022/03/27 00:42:13;;;;;;;324.45;296.88;;;;;;;18.55;26.79;94698.22;5157387;27;20045;-69
2022/03/27 00:44:38;;;;;;;334.13;305.50;;;;;;;18.53;26.82;94701.38;5158915;27;20518;-68
2022/03/27 00:47:06;;;;;;;343.30;315.15;;;;;;;18.54;26.91;94702.13;5157143;27;20049;-68
2022/03/27 00:49:35;;;;;;;326.75;298.98;;;;;;;18.54;26.72;94702.88;5156406;27;20567;-69
2022/03/27 00:52:02;;;;;;;313.40;286.63;;;;;;;18.53;26.57;94697.91;5161142;27;20035;-69
2022/03/27 00:54:27;;;;;;;312.65;285.85;;;;;;;18.52;26.68;94696.38;5162523;27;20030;-68
2022/03/27 00:56:53;;;;;;;328.45;300.92;;;;;;;18.50;26.65;94702.25;5162267;27;22882;-69
2022/03/27 00:59:18;;;;;;;315.10;288.42;;;;;;;18.50;26.87;94696.06;5161517;27;20049;-69
2022/03/27 01:01:44;;;;;;;310.17;283.65;;;;;;;18.50;26.74;94699.53;5156577;27;20095;-70
2022/03/27 01:04:10;;;;;;;318.02;291.00;;;;;;;18.48;26.68;94693.81;5158105;27;20031;-67
2022/03/27 01:06:40;;;;;;;317.92;290.63;;;;;;;18.48;26.80;94699.22;5156262;27;20039;-68
2022/03/27 01:11:54;;;;;;;337.27;309.42;;;;;;;18.48;26.84;94688.38;5150987;27;20065;-68
2022/03/27 01:14:33;;;;;;;330.20;302.52;;;;;;;18.48;26.74;94688.38;5152896;27;20121;-69
2022/03/27 01:17:09;;;;;;;333.70;306.20;;;;;;;18.48;26.87;94693.03;5156108;27;20084;-68
2022/03/27 01:19:40;;;;;;;329.27;301.48;;;;;;;18.47;26.67;94686.09;5146846;27;20457;-69
2022/03/27 01:22:05;;;;;;;321.58;294.63;;;;;;;18.47;26.82;94678.00;5165989;27;20034;-68
2022/03/27 01:24:31;;;;;;;320.00;292.70;;;;;;;18.44;26.73;94683.09;5160183;27;20387;-69
2022/03/27 01:26:56;;;;;;;326.55;299.00;;;;;;;18.44;26.65;94682.31;5157019;27;20042;-67
2022/03/27 01:29:22;;;;;;;319.00;291.45;;;;;;;18.44;26.88;94682.31;5151202;27;20167;-69
2022/03/27 01:31:47;;;;;;;329.20;301.75;;;;;;;18.43;26.91;94672.69;5135906;27;20045;-69
2022/03/27 01:34:14;;;;;;;323.10;296.08;;;;;;;18.44;26.73;94674.22;5154047;27;20054;-67
2022/03/27 01:36:39;;;;;;;335.58;307.33;;;;;;;18.41;26.87;94677.78;5164096;27;20446;-69
2022/03/27 01:39:10;;;;;;;321.58;294.45;;;;;;;18.39;26.74;94672.81;5127299;27;20119;-67
2022/03/27 01:41:36;;;;;;;331.88;304.10;;;;;;;18.40;26.83;94668.91;5159871;27;20126;-68
2022/03/27 01:44:04;;;;;;;331.30;302.58;;;;;;;18.40;26.74;94674.31;5159803;27;20094;-69
2022/03/27 01:46:31;;;;;;;316.17;289.27;;;;;;;18.40;26.88;94671.63;5162259;27;20038;-68
2022/03/27 01:48:59;;;;;;;311.05;284.50;;;;;;;18.39;27.06;94669.34;5155962;27;20091;-68
2022/03/27 01:51:25;;;;;;;323.40;296.00;;;;;;;18.38;26.80;94670.53;5159053;27;20038;-68
2022/03/27 01:53:50;;;;;;;319.40;292.00;;;;;;;18.36;26.78;94660.16;5163145;27;20046;-69
2022/03/27 01:56:16;;;;;;;323.38;296.13;;;;;;;18.38;26.92;94659.72;5157515;27;20126;-68
2022/03/27 01:58:42;;;;;;;312.65;285.60;;;;;;;18.37;26.91;94660.91;5151123;27;20073;-68
2022/03/27 02:01:08;;;;;;;326.90;299.60;;;;;;;18.37;26.90;94658.19;5133591;27;20063;-69
2022/03/27 02:03:34;;;;;;;324.08;296.70;;;;;;;18.36;26.84;94662.88;5156786;27;20064;-68
2022/03/27 02:05:59;;;;;;;328.30;300.67;;;;;;;18.35;26.73;94661.34;5151381;27;20528;-68
2022/03/27 02:08:25;;;;;;;327.45;299.65;;;;;;;18.36;26.98;94656.69;5159318;27;20042;-69
2022/03/27 02:10:50;;;;;;;325.80;298.25;;;;;;;18.35;26.85;94658.66;5161502;27;20066;-69
2022/03/27 02:13:22;;;;;;;326.50;298.52;;;;;;;18.34;26.75;94659.84;5152280;27;20055;-67
2022/03/27 02:15:50;;;;;;;320.08;293.20;;;;;;;18.32;26.81;94654.09;5160653;27;20034;-68
2022/03/27 02:18:16;;;;;;;319.52;292.42;;;;;;;18.33;27.02;94657.56;5151691;27;20030;-68
2022/03/27 02:20:44;;;;;;;352.50;322.55;;;;;;;18.33;26.86;94660.28;5159619;27;20069;-67
2022/03/27 02:23:10;;;;;;;331.35;303.48;;;;;;;18.32;26.75;94658.75;5149924;27;20555;-68
2022/03/27 02:25:36;;;;;;;329.15;301.30;;;;;;;18.32;26.94;94664.19;5158959;27;20057;-67
2022/03/27 02:28:03;;;;;;;319.48;292.20;;;;;;;18.31;26.87;94659.97;5139369;27;20038;-69
2022/03/27 02:30:28;;;;;;;318.95;291.75;;;;;;;18.33;26.82;94661.03;5149784;27;20046;-68
2022/03/27 02:32:54;;;;;;;331.25;303.60;;;;;;;18.31;26.70;94666.13;5154617;27;20050;-69
2022/03/27 02:35:20;;;;;;;323.50;296.08;;;;;;;18.31;26.80;94663.44;5155142;27;20047;-68
2022/03/27 02:37:45;;;;;;;317.90;291.20;;;;;;;18.32;26.93;94666.88;5155428;27;20841;-69
2022/03/27 02:40:11;;;;;;;317.25;290.27;;;;;;;18.32;27.07;94658.75;5167534;27;20121;-69
2022/03/27 02:42:37;;;;;;;311.88;285.08;;;;;;;18.32;27.05;94661.47;5138181;27;20043;-69
2022/03/27 02:45:03;;;;;;;303.13;276.67;;;;;;;18.30;26.99;94663.88;5150309;27;20141;-67
2022/03/27 02:47:28;;;;;;;304.85;278.30;;;;;;;18.30;26.83;94661.16;5145529;27;20507;-67
2022/03/27 02:49:53;;;;;;;312.48;285.45;;;;;;;18.27;26.77;94659.31;5155139;27;20041;-68
2022/03/27 02:52:20;;;;;;;326.63;299.40;;;;;;;18.27;26.89;94659.31;5156411;27;20039;-68
2022/03/27 02:54:45;;;;;;;310.73;283.83;;;;;;;18.25;26.92;94657.06;5138437;27;20529;-69
2022/03/27 02:57:11;;;;;;;316.27;288.95;;;;;;;18.23;26.92;94651.31;5156134;27;20054;-67
2022/03/27 02:59:36;;;;;;;303.13;276.63;;;;;;;18.24;26.95;94655.53;5137278;27;20034;-67
2022/03/27 03:02:04;;;;;;;308.13;281.58;;;;;;;18.23;27.04;94650.56;5161090;27;20031;-69
2022/03/27 03:04:30;;;;;;;322.42;293.88;;;;;;;18.23;27.02;94655.97;5134986;27;20038;-68
2022/03/27 03:06:56;;;;;;;315.63;288.48;;;;;;;18.22;27.15;94657.94;5154398;27;20038;-69
2022/03/27 03:09:21;;;;;;;320.45;293.58;;;;;;;18.23;26.98;94650.56;5156816;27;22224;-68
2022/03/27 03:11:49;;;;;;;315.58;288.58;;;;;;;18.22;27.00;94657.94;5157134;27;20229;-67
2022/03/27 03:14:15;;;;;;;310.83;283.80;;;;;;;18.21;27.06;94653.72;5137738;27;20027;-69
2022/03/27 03:16:40;;;;;;;339.08;310.95;;;;;;;18.20;27.08;94649.50;5158933;27;20058;-69
2022/03/27 03:19:06;;;;;;;329.52;301.98;;;;;;;18.20;26.94;94654.19;5159394;27;20042;-68
2022/03/27 03:21:32;;;;;;;333.17;304.65;;;;;;;18.21;26.99;94655.66;5155571;27;20053;-68
2022/03/27 03:23:57;;;;;;;334.40;305.52;;;;;;;18.22;26.90;94654.47;5153975;27;20043;-68
2022/03/27 03:26:23;;;;;;;326.45;298.58;;;;;;;18.24;26.98;94654.78;5153183;27;20042;-69
2022/03/27 03:28:49;;;;;;;319.52;292.65;;;;;;;18.22;27.06;94655.22;5157841;27;20046;-68
2022/03/27 03:31:14;;;;;;;329.88;301.45;;;;;;;18.21;27.05;94655.66;5155903;27;20038;-68
2022/03/27 03:33:40;;;;;;;321.45;294.25;;;;;;;18.20;27.07;94656.88;5160414;27;20038;-69
2022/03/27 03:36:06;;;;;;;318.17;291.20;;;;;;;18.17;26.86;94655.06;5161548;27;20058;-68
2022/03/27 03:38:31;;;;;;;327.77;299.85;;;;;;;18.17;27.17;94663.19;5156508;27;20094;-68
2022/03/27 03:40:57;;;;;;;325.08;297.60;;;;;;;18.17;27.08;94661.22;5153556;27;20581;-68
2022/03/27 03:43:22;;;;;;;321.60;294.17;;;;;;;18.18;26.93;94657.31;5156991;27;20145;-68
2022/03/27 03:45:48;;;;;;;315.70;288.83;;;;;;;18.18;26.87;94662.75;5152733;27;20050;-68
2022/03/27 03:48:14;;;;;;;310.98;282.80;;;;;;;18.19;27.04;94658.09;5158274;27;20478;-67
2022/03/27 03:50:39;;;;;;;341.75;313.40;;;;;;;18.16;27.43;94653.53;5155604;27;20034;-68
2022/03/27 03:53:05;;;;;;;305.75;278.92;;;;;;;18.17;27.12;94655.06;5153384;27;20083;-68
2022/03/27 03:55:31;;;;;;;327.65;299.95;;;;;;;18.17;27.03;94655.06;5152470;27;20046;-68
2022/03/27 03:57:57;;;;;;;305.27;278.58;;;;;;;18.19;27.06;94663.50;5157540;27;20057;-68
2022/03/27 04:00:23;;;;;;;322.58;295.15;;;;;;;18.18;27.28;94660.03;5136362;27;20125;-68
2022/03/27 04:02:49;;;;;;;318.23;290.80;;;;;;;18.20;27.49;94663.03;5147336;27;20038;-68
2022/03/27 04:05:14;;;;;;;313.05;286.00;;;;;;;18.21;27.22;94661.06;5154113;27;20036;-68
2022/03/27 04:07:40;;;;;;;326.65;298.88;;;;;;;18.21;27.29;94666.50;5150277;27;20347;-69
2022/03/27 04:10:06;;;;;;;304.60;278.38;;;;;;;18.25;27.24;94656.31;5148758;27;20866;-68
2022/03/27 04:12:32;;;;;;;326.80;299.35;;;;;;;18.25;27.01;94654.34;5158464;27;20122;-69
2022/03/27 04:14:57;;;;;;;309.65;282.88;;;;;;;18.28;27.19;94656.19;5150386;27;20500;-68
2022/03/27 04:17:23;;;;;;;322.73;295.38;;;;;;;18.28;27.17;94655.41;5149741;27;20121;-68
2022/03/27 04:19:48;;;;;;;314.65;287.55;;;;;;;18.27;27.23;94657.38;5155576;27;20480;-68
2022/03/27 04:22:14;;;;;;;319.33;292.02;;;;;;;18.27;27.28;94654.66;5142733;27;20034;-68
2022/03/27 04:24:39;;;;;;;317.75;290.58;;;;;;;18.29;27.25;94657.69;5158781;27;20038;-68
2022/03/27 04:27:05;;;;;;;329.63;301.73;;;;;;;18.30;27.12;94656.50;5151318;27;20043;-68
2022/03/27 04:29:30;;;;;;;371.85;342.17;;;;;;;18.33;26.98;94654.88;5152037;27;20121;-69
2022/03/27 04:31:56;;;;;;;332.17;304.15;;;;;;;18.34;27.17;94649.00;5152769;27;20095;-68
2022/03/27 04:34:22;;;;;;;371.08;340.42;;;;;;;18.35;27.08;94663.31;5160616;27;20054;-69
2022/03/27 04:36:47;;;;;;;349.83;321.00;;;;;;;18.36;27.29;94657.44;5150127;27;20495;-69
2022/03/27 04:39:13;;;;;;;379.25;348.83;;;;;;;18.39;27.22;94661.97;5158737;27;20038;-67
2022/03/27 04:41:39;;;;;;;362.88;333.65;;;;;;;18.44;27.04;94657.97;5155713;27;20061;-69
2022/03/27 04:44:05;;;;;;;376.67;345.23;;;;;;;18.46;27.17;94660.22;5153579;27;20045;-68
2022/03/27 04:46:30;;;;;;;363.67;333.83;;;;;;;18.49;26.99;94664.75;5148787;27;20486;-68
2022/03/27 04:48:56;;;;;;;356.95;327.65;;;;;;;18.48;27.28;94665.97;5157039;27;20049;-68
2022/03/27 04:51:22;;;;;;;357.75;328.55;;;;;;;18.49;27.07;94657.41;5152699;27;20038;-69
2022/03/27 04:53:49;;;;;;;370.80;341.35;;;;;;;18.52;27.17;94661.16;5159303;27;20041;-68
2022/03/27 04:56:15;;;;;;;360.17;331.17;;;;;;;18.52;27.00;94663.88;5151899;27;20046;-69
2022/03/27 04:58:41;;;;;;;351.55;322.70;;;;;;;18.55;27.12;94668.41;5151294;27;20047;-69
2022/03/27 05:01:07;;;;;;;365.23;335.98;;;;;;;18.56;27.11;94665.25;5159342;27;20039;-67
2022/03/27 05:03:32;;;;;;;349.20;320.35;;;;;;;18.59;26.74;94669.06;5162667;27;20038;-69
2022/03/27 05:05:59;;;;;;;346.67;318.50;;;;;;;18.62;27.29;94668.19;5160685;27;20053;-69
2022/03/27 05:08:26;;;;;;;362.55;333.15;;;;;;;18.64;26.76;94671.22;5131328;27;20042;-69
2022/03/27 05:10:51;;;;;;;360.73;331.60;;;;;;;18.63;27.04;94670.47;5153349;27;20103;-69
2022/03/27 05:13:18;;;;;;;346.65;318.15;;;;;;;18.66;26.98;94669.59;5154559;27;20371;-68
2022/03/27 05:15:44;;;;;;;363.40;334.17;;;;;;;18.68;26.89;94669.13;5138611;27;20038;-68
2022/03/27 05:18:10;;;;;;;367.85;338.45;;;;;;;18.69;26.97;94670.66;5153556;27;20051;-69
2022/03/27 05:20:39;;;;;;;357.02;328.50;;;;;;;18.68;26.94;94666.44;5149644;27;20046;-69
2022/03/27 05:23:05;;;;;;;369.25;339.75;;;;;;;18.68;26.94;94669.91;5152273;27;20042;-68
2022/03/27 05:25:40;;;;;;;361.52;332.67;;;;;;;18.70;26.86;94664.78;5160468;27;20042;-69
2022/03/27 05:28:08;;;;;;;354.20;325.55;;;;;;;18.72;27.02;94662.41;5160153;27;20107;-68
2022/03/27 05:30:33;;;;;;;379.17;349.55;;;;;;;18.72;26.89;94662.41;5151537;27;20266;-68
2022/03/27 05:32:59;;;;;;;367.38;337.98;;;;;;;18.72;26.84;94653.50;5160221;27;20658;-69
2022/03/27 05:35:25;;;;;;;360.95;332.33;;;;;;;18.77;27.05;94657.59;5131523;27;20043;-68
2022/03/27 05:37:51;;;;;;;359.00;330.40;;;;;;;18.76;26.81;94659.56;5154395;27;20461;-69
2022/03/27 05:40:20;;;;;;;361.10;332.48;;;;;;;18.77;26.88;94663.78;5137316;27;20494;-69
2022/03/27 05:42:47;;;;;;;354.05;325.00;;;;;;;18.77;26.80;94665.72;5151804;27;20137;-69
2022/03/27 05:45:13;;;;;;;347.02;319.00;;;;;;;18.75;26.68;94664.22;5140274;27;20060;-67
2022/03/27 05:47:42;;;;;;;349.02;320.80;;;;;;;18.77;26.76;94663.03;5164329;27;22384;-68
2022/03/27 05:50:10;;;;;;;357.25;328.25;;;;;;;18.79;26.71;94666.06;5164373;27;20438;-68
2022/03/27 05:52:36;;;;;;;354.08;325.77;;;;;;;18.79;26.85;94664.09;5162028;27;20031;-69
2022/03/27 05:55:02;;;;;;;359.77;330.45;;;;;;;18.81;26.67;94666.38;5162728;27;20042;-68
2022/03/27 05:57:28;;;;;;;361.02;332.23;;;;;;;18.81;26.72;94663.66;5159110;27;20047;-69
2022/03/27 05:59:53;;;;;;;348.08;319.83;;;;;;;18.82;26.67;94665.91;5140547;27;20110;-69
2022/03/27 06:02:18;;;;;;;399.40;369.27;;;;;;;18.84;26.82;94665.47;5161558;27;20038;-69
2022/03/27 06:04:44;;;;;;;381.38;351.95;;;;;;;18.82;26.76;94665.16;5139324;27;20601;-69
2022/03/27 06:07:10;;;;;;;335.98;308.27;;;;;;;18.84;26.70;94663.53;5161307;27;20046;-68
2022/03/27 06:09:36;;;;;;;395.35;364.63;;;;;;;18.85;26.92;94667.72;5139880;27;20065;-69
2022/03/27 06:12:03;;;;;;;387.10;356.95;;;;;;;18.84;26.64;94671.66;5151372;27;20099;-70
2022/03/27 06:14:30;;;;;;;340.52;312.52;;;;;;;18.85;26.88;94669.69;5157399;27;20030;-70
2022/03/27 06:16:56;;;;;;;381.55;351.35;;;;;;;18.85;26.70;94664.28;5149404;27;20442;-69
2022/03/27 06:19:21;;;;;;;349.50;321.52;;;;;;;18.87;26.71;94659.91;5157861;27;20042;-68
2022/03/27 06:21:47;;;;;;;383.35;353.55;;;;;;;18.86;26.68;94665.75;5164836;27;20046;-69
2022/03/27 06:24:13;;;;;;;344.88;317.02;;;;;;;18.86;26.69;94657.63;5153338;27;20035;-71
2022/03/27 06:26:40;;;;;;;353.13;324.75;;;;;;;18.87;26.66;94657.19;5170769;27;20035;-69
2022/03/27 06:29:09;;;;;;;374.73;345.05;;;;;;;18.89;26.69;94656.75;5155109;27;20046;-70
2022/03/27 06:31:38;;;;;;;349.08;320.83;;;;;;;18.88;26.63;94655.25;5138730;27;20043;-67
2022/03/27 06:34:05;;;;;;;383.85;352.80;;;;;;;18.89;26.61;94651.31;5148945;27;20054;-66
2022/03/27 06:36:32;;;;;;;375.65;345.98;;;;;;;18.88;26.74;94658.69;5154598;27;20046;-68
2022/03/27 06:38:58;;;;;;;401.48;370.98;;;;;;;18.89;26.67;94656.75;5135030;27;20056;-71
2022/03/27 06:41:23;;;;;;;355.27;326.88;;;;;;;18.87;26.70;94648.31;5167752;27;20121;-69
2022/03/27 06:43:49;;;;;;;358.77;329.90;;;;;;;18.83;26.72;94650.41;5162360;27;20042;-68
2022/03/27 06:46:17;;;;;;;360.42;331.63;;;;;;;18.77;26.88;94644.81;5131756;27;20975;-69
2022/03/27 06:48:44;;;;;;;349.23;320.92;;;;;;;18.73;26.93;94657.72;5159838;27;20046;-68
2022/03/27 06:51:10;;;;;;;366.30;337.15;;;;;;;18.71;26.88;94652.75;5153453;27;20534;-68
2022/03/27 06:53:36;;;;;;;358.85;330.15;;;;;;;18.71;26.98;94650.03;5157977;27;20082;-69
2022/03/27 06:56:02;;;;;;;343.95;316.00;;;;;;;18.70;27.00;94647.78;5158981;27;20451;-69
2022/03/27 06:58:27;;;;;;;345.38;317.67;;;;;;;18.70;26.80;94653.94;5158777;27;20048;-68
2022/03/27 07:03:37;;;;;;;357.55;328.50;;;;;;;18.72;26.81;94646.13;5163407;27;20035;-69
2022/03/27 07:06:03;;;;;;;355.63;326.90;;;;;;;18.73;27.14;94647.66;5139819;27;20053;-68
2022/03/27 07:08:28;;;;;;;342.00;314.30;;;;;;;18.74;27.05;94648.41;5161345;27;20799;-68
2022/03/27 07:10:55;;;;;;;361.05;332.40;;;;;;;18.75;27.05;94649.91;5157645;27;20043;-68
2022/03/27 07:13:21;;;;;;;338.92;311.17;;;;;;;18.75;26.92;94645.25;5136039;27;20410;-67
2022/03/27 07:15:47;;;;;;;357.38;328.42;;;;;;;18.73;27.01;94641.47;5153583;27;20039;-67
2022/03/27 07:18:14;;;;;;;363.73;334.60;;;;;;;18.71;27.01;94644.63;5155651;27;20522;-70
2022/03/27 07:20:41;;;;;;;347.88;318.75;;;;;;;18.71;27.05;94646.59;5132504;27;20927;-69
2022/03/27 07:23:10;;;;;;;376.13;344.45;;;;;;;18.70;26.94;94643.13;5133261;27;20117;-69
2022/03/27 07:25:41;;;;;;;364.73;334.35;;;;;;;18.70;26.98;94648.53;5132632;27;20511;-70
2022/03/27 07:28:08;;;;;;;367.90;337.40;;;;;;;18.71;27.00;94646.59;5133756;27;20494;-69
2022/03/27 07:30:35;;;;;;;359.45;330.25;;;;;;;18.70;26.90;94648.53;5135010;27;20042;-69
2022/03/27 07:33:01;;;;;;;371.95;340.17;;;;;;;18.73;26.87;94649.59;5134826;27;20053;-69
2022/03/27 07:35:30;;;;;;;362.35;332.25;;;;;;;18.71;27.12;94655.47;5112070;27;20507;-69
2022/03/27 07:37:57;;;;;;;359.67;329.27;;;;;;;18.71;27.15;94658.19;5134214;27;20126;-69
2022/03/27 07:40:22;;;;;;;356.25;326.90;;;;;;;18.71;27.13;94665.56;5135000;27;20038;-68
2022/03/27 07:42:50;;;;;;;357.20;327.05;;;;;;;18.75;27.07;94666.94;5134773;27;20047;-69
2022/03/27 07:45:21;;;;;;;380.58;349.23;;;;;;;18.73;27.14;94661.19;5124628;27;20486;-69
2022/03/27 07:47:52;;;;;;;378.92;348.38;;;;;;;18.72;26.95;94656.97;5134447;27;20615;-69
2022/03/27 07:50:20;;;;;;;349.42;320.17;;;;;;;18.70;27.03;94662.09;5133248;27;20123;-69
2022/03/27 07:52:46;;;;;;;367.45;336.30;;;;;;;18.72;27.09;94656.22;5134070;27;20066;-68
2022/03/27 07:55:15;;;;;;;352.27;321.77;;;;;;;18.72;26.89;94656.97;5136068;27;20536;-68
2022/03/27 07:57:44;;;;;;;363.48;333.02;;;;;;;18.73;26.80;94660.44;5131443;27;20051;-68
2022/03/27 08:00:12;;;;;;;335.88;307.77;;;;;;;18.77;26.84;94665.72;5123512;27;20046;-68
2022/03/27 08:02:39;;;;;;;353.65;323.40;;;;;;;18.77;26.91;94663.78;5134462;27;20085;-68
2022/03/27 08:05:06;;;;;;;347.42;317.48;;;;;;;18.73;26.82;94655.03;5134029;27;20113;-68
2022/03/27 08:07:32;;;;;;;346.10;316.63;;;;;;;18.72;26.77;94667.06;5136318;27;20502;-68
2022/03/27 08:09:59;;;;;;;357.90;327.42;;;;;;;18.68;26.88;94661.00;5133567;27;20115;-67
2022/03/27 08:12:25;;;;;;;364.10;333.58;;;;;;;18.68;26.95;94647.47;5132961;27;20057;-68
2022/03/27 08:14:51;;;;;;;363.55;332.70;;;;;;;18.67;26.82;94654.84;5131687;27;20964;-67
2022/03/27 08:17:16;;;;;;;369.20;337.75;;;;;;;18.68;26.87;94661.78;5128797;27;20094;-68
2022/03/27 08:19:43;;;;;;;376.13;344.40;;;;;;;18.68;26.89;94664.47;5133274;27;20521;-68
2022/03/27 08:22:10;;;;;;;354.48;324.13;;;;;;;18.68;26.71;94653.63;5132252;27;20038;-68
2022/03/27 08:24:36;;;;;;;351.98;322.50;;;;;;;18.68;26.77;94655.59;5133289;27;20693;-67
2022/03/27 08:27:04;;;;;;;356.98;326.75;;;;;;;18.67;26.95;94654.84;5133694;27;20062;-68
2022/03/27 08:29:32;;;;;;;356.20;325.98;;;;;;;18.66;26.68;94650.63;5134387;27;20058;-68
2022/03/27 08:32:03;;;;;;;352.70;322.65;;;;;;;18.69;26.90;94651.69;5132748;27;20042;-68
2022/03/27 08:34:30;;;;;;;359.70;329.47;;;;;;;18.68;26.89;94650.94;5134381;27;20198;-68
2022/03/27 08:36:57;;;;;;;356.65;326.27;;;;;;;18.73;26.85;94660.44;5132892;27;20050;-68
2022/03/27 08:39:24;;;;;;;360.63;330.25;;;;;;;18.77;26.68;94660.31;5133069;27;20471;-67
2022/03/27 08:41:51;;;;;;;342.60;313.80;;;;;;;18.74;26.77;94653.81;5134335;27;20195;-68
2022/03/27 08:44:18;;;;;;;341.08;311.70;;;;;;;18.74;26.81;94648.41;5130764;27;20066;-68
2022/03/27 08:46:46;;;;;;;371.45;340.60;;;;;;;18.76;26.80;94651.44;5132313;27;20449;-68
2022/03/27 08:49:35;;;;;;;358.40;327.90;;;;;;;18.77;26.92;94654.91;5134119;27;20459;-69
2022/03/27 08:52:02;;;;;;;368.30;337.67;;;;;;;18.74;26.68;94654.59;5123778;27;20083;-68
2022/03/27 08:54:55;;;;;;;366.75;335.30;;;;;;;18.66;26.91;94658.00;5129358;27;20042;-68
2022/03/27 08:57:24;;;;;;;360.85;329.48;;;;;;;18.68;26.84;94653.63;5112450;27;20076;-68
2022/03/27 08:59:53;;;;;;;361.20;330.80;;;;;;;18.71;26.87;94654.72;5133020;27;20499;-67
2022/03/27 09:02:22;;;;;;;364.77;333.10;;;;;;;18.73;26.96;94660.44;5134492;27;20094;-67
2022/03/27 09:04:53;;;;;;;353.80;323.83;;;;;;;18.73;26.69;94652.31;5135863;27;20053;-69
2022/03/27 09:07:23;;;;;;;347.45;318.08;;;;;;;18.68;26.95;94661.00;5117876;27;20053;-69
2022/03/27 09:09:50;;;;;;;365.10;334.65;;;;;;;18.65;27.03;94659.94;5138688;27;20046;-69
2022/03/27 09:12:18;;;;;;;376.00;344.48;;;;;;;18.67;26.95;94659.50;5136420;27;20039;-68
2022/03/27 09:14:44;;;;;;;365.42;334.40;;;;;;;18.71;26.66;94666.31;5137133;27;20050;-68
2022/03/27 09:17:10;;;;;;;369.17;338.17;;;;;;;18.72;26.77;94661.66;5138034;27;20729;-68
2022/03/27 09:19:40;;;;;;;345.63;315.88;;;;;;;18.68;26.83;94658.31;5135218;27;20750;-67
2022/03/27 09:22:16;;;;;;;359.13;328.17;;;;;;;18.61;26.81;94659.31;5135274;27;20062;-68
2022/03/27 09:24:47;;;;;;;354.40;324.75;;;;;;;18.58;26.75;94662.88;5135192;27;20047;-68
2022/03/27 09:27:14;;;;;;;358.98;328.15;;;;;;;18.56;26.88;94661.81;5135638;27;20414;-67
2022/03/27 09:30:09;;;;;;;367.67;336.52;;;;;;;18.59;26.74;94661.69;5135877;27;20122;-66
2022/03/27 09:32:45;;;;;;;346.88;316.83;;;;;;;18.56;26.60;94659.84;5135674;27;20051;-68
2022/03/27 09:35:17;;;;;;;351.90;321.30;;;;;;;18.61;26.87;94658.56;5134847;27;20110;-68
2022/03/27 09:37:46;;;;;;;345.70;315.63;;;;;;;18.55;26.76;94658.34;5136483;27;20042;-67
2022/03/27 09:40:13;;;;;;;357.90;327.35;;;;;;;18.58;26.86;94654.00;5135894;27;20046;-68
2022/03/27 09:42:40;;;;;;;369.00;337.73;;;;;;;18.61;26.67;94653.13;5137923;27;20038;-68
2022/03/27 09:45:18;;;;;;;351.80;321.80;;;;;;;18.62;26.71;94654.66;5134208;27;20645;-68
2022/03/27 09:47:46;;;;;;;346.30;316.40;;;;;;;18.62;26.86;94655.41;5138013;27;20509;-68
2022/03/27 09:50:48;;;;;;;354.95;324.48;;;;;;;18.60;26.73;94646.97;5135985;27;20043;-68
2022/03/27 09:53:31;;;;;;;329.48;302.23;;;;;;;18.59;26.91;94644.66;5046871;28;20573;-68
2022/03/27 09:55:57;;;;;;;335.70;307.33;;;;;;;18.53;26.76;94646.44;5144672;27;20046;-69
2022/03/27 09:58:50;;;;;;;336.50;308.65;;;;;;;18.57;26.80;94649.78;5134447;27;20132;-70
2022/03/27 10:01:18;;;;;;;342.77;313.70;;;;;;;18.55;26.78;94646.75;5159815;27;20031;-68
2022/03/27 10:03:57;;;;;;;348.17;319.05;;;;;;;18.54;26.56;94647.94;5151182;27;20067;-69
2022/03/27 10:06:38;;;;;;;348.45;319.88;;;;;;;18.54;26.80;94647.94;5138656;27;20038;-69
2022/03/27 10:09:06;;;;;;;333.85;306.58;;;;;;;18.56;26.97;94645.56;5167605;27;20402;-69
2022/03/27 10:11:33;;;;;;;352.63;324.00;;;;;;;18.57;26.82;94644.34;5154102;27;20046;-68
2022/03/27 10:13:59;;;;;;;358.05;328.15;;;;;;;18.52;26.79;94637.56;5157838;27;20046;-71
2022/03/27 10:16:28;;;;;;;344.30;315.20;;;;;;;18.51;26.87;94652.28;5147270;27;20104;-69
2022/03/27 10:19:02;;;;;;;354.55;325.95;;;;;;;18.47;26.88;94637.34;5159574;27;20050;-68
2022/03/27 10:21:29;;;;;;;332.98;305.83;;;;;;;18.48;26.69;94644.28;5165842;27;20099;-68
2022/03/27 10:24:14;;;;;;;343.33;314.33;;;;;;;18.44;26.60;94650.59;5139121;27;20406;-69
2022/03/27 10:26:41;;;;;;;349.13;319.80;;;;;;;18.47;26.76;94642.78;5161535;27;20085;-69
2022/03/27 10:29:09;;;;;;;341.60;313.77;;;;;;;18.47;26.51;94640.81;5158020;27;20034;-68
2022/03/27 10:31:34;;;;;;;335.42;307.70;;;;;;;18.50;26.69;94637.22;5152830;27;20153;-69
2022/03/27 10:34:02;;;;;;;368.75;338.67;;;;;;;18.52;26.84;94642.97;5159335;27;20065;-69
2022/03/27 10:36:54;;;;;;;363.15;333.73;;;;;;;18.44;26.62;94637.03;5138736;27;20047;-68
2022/03/27 10:39:25;;;;;;;347.20;318.13;;;;;;;18.42;26.67;94633.25;5142438;27;20046;-68
2022/03/27 10:42:13;;;;;;;345.73;317.00;;;;;;;18.39;26.62;94636.84;5142861;27;20675;-68
2022/03/27 10:45:06;;;;;;;341.20;313.05;;;;;;;18.38;26.55;94625.28;5150992;27;20541;-68
2022/03/27 10:47:31;;;;;;;336.23;307.65;;;;;;;18.42;26.61;94628.59;5163582;27;20612;-67
2022/03/27 10:50:00;;;;;;;333.75;306.25;;;;;;;18.42;26.54;94627.84;5161407;27;20031;-68
2022/03/27 10:52:26;;;;;;;335.75;307.85;;;;;;;18.43;26.73;94629.34;5165614;27;20145;-68
2022/03/27 10:54:59;;;;;;;337.48;308.92;;;;;;;18.42;26.76;94625.16;5149969;27;20141;-67
2022/03/27 10:57:30;;;;;;;346.60;318.27;;;;;;;18.46;26.63;94620.34;5168958;27;20106;-69
2022/03/27 10:59:56;;;;;;;361.17;331.23;;;;;;;18.40;26.67;94628.28;5150924;27;20061;-69
2022/03/27 11:02:49;;;;;;;328.15;300.35;;;;;;;18.38;26.74;94619.84;5158645;27;20031;-69
2022/03/27 11:05:36;;;;;;;337.63;310.15;;;;;;;18.43;26.46;94619.28;5161318;27;20054;-68
2022/03/27 11:08:17;;;;;;;323.25;296.45;;;;;;;18.46;26.46;94614.19;5166026;27;20050;-68
2022/03/27 11:10:54;;;;;;;341.15;313.10;;;;;;;18.46;26.41;94612.22;5162043;27;20039;-68